Time;durP1;ratioP1;P1;durP2;ratioP2;P2;SDS_P1;SDS_P2;PMS_P1;PMS_P2;Temp;Humidity;BMP_temperature;BMP_pressure;BME280_temperature;BME280_humidity;BME280_pressure;Samples;Min_cycle;Max_cycle;Signal;HPM_P1;HPM_P2
2023/09/03 00:00:47;;;;;;;27.90;24.93;;;;;;;;;;5096571;28;20462;-62
2023/09/03 00:03:14;;;;;;;26.00;23.20;;;;;;;;;;5096585;28;20431;-62
2023/09/03 00:05:48;;;;;;;29.73;24.60;;;;;;;;;;5095953;28;20435;-62
2023/09/03 00:08:15;;;;;;;29.33;24.77;;;;;;;;;;5096677;28;20887;-62
2023/09/03 00:10:42;;;;;;;28.40;24.67;;;;;;;;;;5096095;28;20439;-62
2023/09/03 00:13:10;;;;;;;25.40;22.70;;;;;;;;;;5095830;28;20496;-62
2023/09/03 00:15:39;;;;;;;28.70;24.03;;;;;;;;;;5096123;28;20500;-62
2023/09/03 00:18:08;;;;;;;25.37;21.73;;;;;;;;;;5096175;28;20559;-62
2023/09/03 00:20:35;;;;;;;27.20;24.20;;;;;;;;;;5096039;28;20565;-62
2023/09/03 00:23:02;;;;;;;26.57;23.83;;;;;;;;;;5094942;28;20446;-62
2023/09/03 00:25:29;;;;;;;26.27;23.67;;;;;;;;;;5095952;28;20534;-62
2023/09/03 00:27:57;;;;;;;34.40;24.37;;;;;;;;;;5095655;28;20522;-62
2023/09/03 00:30:24;;;;;;;31.03;23.30;;;;;;;;;;5095527;28;20438;-62
2023/09/03 00:32:51;;;;;;;29.40;24.70;;;;;;;;;;5095540;28;20957;-61
2023/09/03 00:35:20;;;;;;;25.50;22.83;;;;;;;;;;5095655;28;21037;-63
2023/09/03 00:37:47;;;;;;;25.97;22.50;;;;;;;;;;5095310;28;20486;-61
2023/09/03 00:40:14;;;;;;;25.53;22.67;;;;;;;;;;5095735;28;20538;-62
2023/09/03 00:42:41;;;;;;;27.63;24.20;;;;;;;;;;5096115;28;20506;-62
2023/09/03 00:45:09;;;;;;;26.30;23.50;;;;;;;;;;5095583;28;20524;-65
2023/09/03 00:47:36;;;;;;;26.40;23.17;;;;;;;;;;5095628;28;20814;-62
2023/09/03 00:50:04;;;;;;;31.53;23.10;;;;;;;;;;5095538;28;20442;-62
2023/09/03 00:52:32;;;;;;;25.63;23.07;;;;;;;;;;5095722;28;20447;-63
2023/09/03 00:55:00;;;;;;;24.60;22.03;;;;;;;;;;5095649;28;20556;-63
2023/09/03 00:57:27;;;;;;;23.87;21.43;;;;;;;;;;5095386;28;21070;-63
2023/09/03 00:59:54;;;;;;;29.83;23.10;;;;;;;;;;5095007;28;20435;-63
2023/09/03 01:02:21;;;;;;;28.03;23.47;;;;;;;;;;5095400;28;20529;-63
2023/09/03 01:04:49;;;;;;;25.27;22.57;;;;;;;;;;5095489;28;20526;-63
2023/09/03 01:07:17;;;;;;;28.00;24.00;;;;;;;;;;5094990;28;20529;-63
2023/09/03 01:09:46;;;;;;;27.10;22.53;;;;;;;;;;5095214;28;20516;-62
2023/09/03 01:12:17;;;;;;;27.50;21.53;;;;;;;;;;5094975;28;20532;-62
2023/09/03 01:14:50;;;;;;;25.33;22.57;;;;;;;;;;5095377;28;20632;-63
2023/09/03 01:17:21;;;;;;;28.87;23.00;;;;;;;;;;5094833;28;20470;-56
2023/09/03 01:20:01;;;;;;;29.83;23.57;;;;;;;;;;5095282;28;20799;-57
2023/09/03 01:22:38;;;;;;;23.60;21.20;;;;;;;;;;5094989;28;20540;-60
2023/09/03 01:25:20;;;;;;;25.33;22.63;;;;;;;;;;5095490;28;20441;-60
2023/09/03 01:27:52;;;;;;;24.07;21.37;;;;;;;;;;5095615;28;20430;-60
2023/09/03 01:30:20;;;;;;;25.73;21.17;;;;;;;;;;5094913;28;20897;-60
2023/09/03 01:32:49;;;;;;;27.20;22.93;;;;;;;;;;5094719;28;20449;-58
2023/09/03 01:35:17;;;;;;;25.80;22.47;;;;;;;;;;5094144;28;20442;-61
2023/09/03 01:37:45;;;;;;;24.73;22.23;;;;;;;;;;5094640;28;20568;-60
2023/09/03 01:40:12;;;;;;;24.63;22.00;;;;;;;;;;5094749;28;20432;-60
2023/09/03 01:42:39;;;;;;;25.73;22.97;;;;;;;;;;5094793;28;20447;-60
2023/09/03 01:45:07;;;;;;;24.83;22.43;;;;;;;;;;5094693;28;20529;-61
2023/09/03 01:47:38;;;;;;;25.87;23.13;;;;;;;;;;5094512;28;20854;-59
2023/09/03 01:50:12;;;;;;;26.50;21.80;;;;;;;;;;5094478;28;20439;-60
2023/09/03 01:52:42;;;;;;;25.73;23.00;;;;;;;;;;5095167;28;20482;-59
2023/09/03 01:55:10;;;;;;;28.90;23.33;;;;;;;;;;5093924;28;20491;-59
2023/09/03 01:57:41;;;;;;;25.27;22.57;;;;;;;;;;5093899;28;20777;-59
2023/09/03 02:00:11;;;;;;;24.17;21.67;;;;;;;;;;5094118;28;20430;-59
2023/09/03 02:02:42;;;;;;;28.80;23.10;;;;;;;;;;5094207;28;20515;-60
2023/09/03 02:05:09;;;;;;;24.97;22.27;;;;;;;;;;5094329;28;20791;-59
2023/09/03 02:07:37;;;;;;;25.33;22.60;;;;;;;;;;5093835;28;20461;-59
2023/09/03 02:10:04;;;;;;;27.77;21.77;;;;;;;;;;5093843;28;20441;-60
2023/09/03 02:12:31;;;;;;;24.93;21.70;;;;;;;;;;5093673;28;20931;-60
2023/09/03 02:14:59;;;;;;;26.53;22.37;;;;;;;;;;5094131;28;20874;-59
2023/09/03 02:17:26;;;;;;;24.03;21.37;;;;;;;;;;5093927;28;20566;-60
2023/09/03 02:19:56;;;;;;;27.83;22.20;;;;;;;;;;5093503;28;20437;-60
2023/09/03 02:22:23;;;;;;;25.90;21.97;;;;;;;;;;5093693;28;20542;-59
2023/09/03 02:24:51;;;;;;;25.87;21.43;;;;;;;;;;5093780;28;21007;-60
2023/09/03 02:27:18;;;;;;;27.60;21.60;;;;;;;;;;5093703;28;20784;-60
2023/09/03 02:29:45;;;;;;;26.93;22.53;;;;;;;;;;5093784;28;20465;-60
2023/09/03 02:32:13;;;;;;;27.20;23.27;;;;;;;;;;5093617;28;20533;-60
2023/09/03 02:34:40;;;;;;;25.13;22.40;;;;;;;;;;5093662;28;20835;-60
2023/09/03 02:37:08;;;;;;;25.90;23.03;;;;;;;;;;5093533;28;20792;-60
2023/09/03 02:39:35;;;;;;;24.63;22.03;;;;;;;;;;5093615;28;20446;-60
2023/09/03 02:42:03;;;;;;;28.40;22.53;;;;;;;;;;5093191;28;20944;-60
2023/09/03 02:44:30;;;;;;;29.20;23.90;;;;;;;;;;5093838;28;20449;-60
2023/09/03 02:46:57;;;;;;;24.10;21.60;;;;;;;;;;5092806;28;20458;-65
2023/09/03 02:49:24;;;;;;;26.33;21.93;;;;;;;;;;5093203;28;20448;-60
2023/09/03 02:51:51;;;;;;;26.20;23.50;;;;;;;;;;5093398;28;20436;-63
2023/09/03 02:54:20;;;;;;;25.40;22.67;;;;;;;;;;5093174;28;20990;-61
2023/09/03 02:56:47;;;;;;;27.17;23.07;;;;;;;;;;5092675;28;20447;-61
2023/09/03 02:59:14;;;;;;;30.07;23.50;;;;;;;;;;5092664;28;20930;-61
2023/09/03 03:01:42;;;;;;;26.40;22.70;;;;;;;;;;5092976;28;20878;-61
2023/09/03 03:04:09;;;;;;;26.07;23.30;;;;;;;;;;5092970;28;20803;-61
2023/09/03 03:06:36;;;;;;;26.97;22.10;;;;;;;;;;5092961;28;20442;-61
2023/09/03 03:09:05;;;;;;;26.30;23.03;;;;;;;;;;5092664;28;20445;-61
2023/09/03 03:11:34;;;;;;;25.73;22.90;;;;;;;;;;5092552;28;20978;-61
2023/09/03 03:14:01;;;;;;;27.93;25.03;;;;;;;;;;5092674;28;20529;-61
2023/09/03 03:16:28;;;;;;;28.97;24.83;;;;;;;;;;5092551;28;20581;-61
2023/09/03 03:18:55;;;;;;;25.90;22.73;;;;;;;;;;5092899;28;20843;-62
2023/09/03 03:21:23;;;;;;;28.40;23.73;;;;;;;;;;5092769;28;20434;-61
2023/09/03 03:23:50;;;;;;;28.93;22.17;;;;;;;;;;5092619;28;20427;-61
2023/09/03 03:26:16;;;;;;;25.97;23.20;;;;;;;;;;5092601;28;20849;-61
2023/09/03 03:28:45;;;;;;;28.50;23.47;;;;;;;;;;5093084;28;20780;-61
2023/09/03 03:31:13;;;;;;;31.00;23.67;;;;;;;;;;5092675;28;20460;-62
2023/09/03 03:33:40;;;;;;;27.47;23.10;;;;;;;;;;5092473;28;20521;-61
2023/09/03 03:36:08;;;;;;;29.50;23.20;;;;;;;;;;5092577;28;20537;-61
2023/09/03 03:38:35;;;;;;;29.07;24.70;;;;;;;;;;5092556;28;20842;-61
2023/09/03 03:41:09;;;;;;;28.27;23.10;;;;;;;;;;5092565;28;20434;-61
2023/09/03 03:43:37;;;;;;;29.20;26.00;;;;;;;;;;5092780;28;20458;-61
2023/09/03 03:46:06;;;;;;;30.00;24.00;;;;;;;;;;5092668;28;20932;-61
2023/09/03 03:48:33;;;;;;;31.27;23.70;;;;;;;;;;5092752;28;20797;-61
2023/09/03 03:51:00;;;;;;;28.00;24.40;;;;;;;;;;5092718;28;20467;-61
2023/09/03 03:53:28;;;;;;;28.50;24.83;;;;;;;;;;5092003;28;20570;-61
2023/09/03 03:55:58;;;;;;;26.63;22.90;;;;;;;;;;5093009;28;20754;-61
2023/09/03 03:58:26;;;;;;;27.03;24.13;;;;;;;;;;5095899;28;20914;-61
2023/09/03 04:00:53;;;;;;;27.60;23.50;;;;;;;;;;5096275;28;20437;-61
2023/09/03 04:03:22;;;;;;;28.70;23.10;;;;;;;;;;5096582;28;20831;-61
2023/09/03 04:05:56;;;;;;;26.13;23.33;;;;;;;;;;5096400;28;20954;-61
2023/09/03 04:08:24;;;;;;;26.10;22.70;;;;;;;;;;5096458;28;20433;-61
2023/09/03 04:10:57;;;;;;;26.13;23.30;;;;;;;;;;5096225;28;20435;-62
2023/09/03 04:13:24;;;;;;;26.13;21.90;;;;;;;;;;5095928;28;20947;-62
2023/09/03 04:15:52;;;;;;;34.30;23.03;;;;;;;;;;5096078;28;20533;-61
2023/09/03 04:18:19;;;;;;;26.63;22.80;;;;;;;;;;5095645;28;20488;-62
2023/09/03 04:20:47;;;;;;;32.73;24.30;;;;;;;;;;5096290;28;20433;-61
2023/09/03 04:23:15;;;;;;;28.53;23.33;;;;;;;;;;5096070;28;20457;-61
2023/09/03 04:25:42;;;;;;;28.80;23.90;;;;;;;;;;5095900;28;20435;-61
2023/09/03 04:28:09;;;;;;;27.00;22.80;;;;;;;;;;5095326;28;20537;-61
2023/09/03 04:30:38;;;;;;;28.07;25.07;;;;;;;;;;5096045;28;20440;-62
2023/09/03 04:33:07;;;;;;;28.10;22.63;;;;;;;;;;5095447;28;20879;-59
2023/09/03 04:35:34;;;;;;;28.37;23.50;;;;;;;;;;5095630;28;20447;-59
2023/09/03 04:38:03;;;;;;;30.50;24.77;;;;;;;;;;5095628;28;20583;-59
2023/09/03 04:40:33;;;;;;;31.87;24.83;;;;;;;;;;5095693;28;20834;-59
2023/09/03 04:43:00;;;;;;;32.57;23.40;;;;;;;;;;5094492;28;20439;-58
2023/09/03 04:45:27;;;;;;;27.20;23.40;;;;;;;;;;5095224;28;20437;-59
2023/09/03 04:47:54;;;;;;;30.83;24.17;;;;;;;;;;5094935;28;20441;-58
2023/09/03 04:50:22;;;;;;;28.67;24.03;;;;;;;;;;5094934;28;20439;-59
2023/09/03 04:52:49;;;;;;;33.80;24.27;;;;;;;;;;5094886;28;20446;-59
2023/09/03 04:55:18;;;;;;;27.33;23.97;;;;;;;;;;5095717;28;20561;-58
2023/09/03 04:57:45;;;;;;;28.70;24.17;;;;;;;;;;5095309;28;20442;-59
2023/09/03 05:00:12;;;;;;;27.83;23.53;;;;;;;;;;5094977;28;20502;-59
2023/09/03 05:02:40;;;;;;;27.50;24.57;;;;;;;;;;5094483;28;20443;-59
2023/09/03 05:05:08;;;;;;;27.43;22.93;;;;;;;;;;5094789;28;20851;-58
2023/09/03 05:07:35;;;;;;;25.57;21.83;;;;;;;;;;5094493;28;20936;-58
2023/09/03 05:10:02;;;;;;;28.60;23.70;;;;;;;;;;5093826;28;20953;-58
2023/09/03 05:12:31;;;;;;;28.93;23.40;;;;;;;;;;5094062;28;20445;-59
2023/09/03 05:14:58;;;;;;;28.10;22.93;;;;;;;;;;5094640;28;20436;-59
2023/09/03 05:17:25;;;;;;;28.57;23.27;;;;;;;;;;5094418;28;20438;-59
2023/09/03 05:19:52;;;;;;;26.70;23.77;;;;;;;;;;5094328;28;20477;-59
2023/09/03 05:22:20;;;;;;;35.27;25.87;;;;;;;;;;5094528;28;20620;-59
2023/09/03 05:24:47;;;;;;;28.53;23.50;;;;;;;;;;5093985;28;20965;-58
2023/09/03 05:27:14;;;;;;;28.33;22.63;;;;;;;;;;5094931;28;20809;-58
2023/09/03 05:29:43;;;;;;;32.10;24.30;;;;;;;;;;5094465;28;20446;-59
2023/09/03 05:32:10;;;;;;;27.33;22.73;;;;;;;;;;5094270;28;20465;-59
2023/09/03 05:34:37;;;;;;;26.23;22.17;;;;;;;;;;5094075;28;21025;-59
2023/09/03 05:37:05;;;;;;;26.90;23.50;;;;;;;;;;5094056;28;20528;-58
2023/09/03 05:39:33;;;;;;;30.80;24.40;;;;;;;;;;5094125;28;20471;-59
2023/09/03 05:42:00;;;;;;;27.40;23.90;;;;;;;;;;5094500;28;20439;-58
2023/09/03 05:44:27;;;;;;;28.77;23.50;;;;;;;;;;5093948;28;20960;-58
2023/09/03 05:46:56;;;;;;;27.80;23.17;;;;;;;;;;5094336;28;20795;-58
2023/09/03 05:49:23;;;;;;;25.00;21.70;;;;;;;;;;5093729;28;20446;-59
2023/09/03 05:51:50;;;;;;;26.30;23.43;;;;;;;;;;5094252;28;20552;-59
2023/09/03 05:54:17;;;;;;;29.93;23.57;;;;;;;;;;5093598;28;20568;-59
2023/09/03 05:56:44;;;;;;;28.73;24.23;;;;;;;;;;5093886;28;20526;-58
2023/09/03 05:59:13;;;;;;;24.70;20.73;;;;;;;;;;5093774;28;20478;-59
2023/09/03 06:01:40;;;;;;;25.47;21.83;;;;;;;;;;5093569;28;20916;-59
2023/09/03 06:04:13;;;;;;;26.50;23.70;;;;;;;;;;5093945;28;20539;-59
2023/09/03 06:06:41;;;;;;;25.60;22.80;;;;;;;;;;5093623;28;20463;-58
2023/09/03 06:09:09;;;;;;;25.30;22.40;;;;;;;;;;5093894;28;20590;-59
2023/09/03 06:11:36;;;;;;;27.30;22.30;;;;;;;;;;5093741;28;20434;-58
2023/09/03 06:14:03;;;;;;;29.80;23.03;;;;;;;;;;5093850;28;20444;-59
2023/09/03 06:16:31;;;;;;;24.50;21.87;;;;;;;;;;5093822;28;20529;-59
2023/09/03 06:18:58;;;;;;;25.23;20.60;;;;;;;;;;5093622;28;20489;-59
2023/09/03 06:21:26;;;;;;;27.70;22.13;;;;;;;;;;5092812;28;20463;-58
2023/09/03 06:23:54;;;;;;;22.67;19.73;;;;;;;;;;5093916;28;20520;-58
2023/09/03 06:26:21;;;;;;;24.57;21.73;;;;;;;;;;5093809;28;20871;-59
2023/09/03 06:28:48;;;;;;;24.47;21.80;;;;;;;;;;5093702;28;20533;-59
2023/09/03 06:31:16;;;;;;;23.70;21.20;;;;;;;;;;5093686;28;20525;-59
2023/09/03 06:33:44;;;;;;;24.60;20.70;;;;;;;;;;5094297;28;20484;-59
2023/09/03 06:36:12;;;;;;;24.63;22.13;;;;;;;;;;5093595;28;20447;-58
2023/09/03 06:38:43;;;;;;;23.67;19.80;;;;;;;;;;5093092;28;20952;-57
2023/09/03 06:41:10;;;;;;;28.50;22.00;;;;;;;;;;5094083;28;20483;-58
2023/09/03 06:43:38;;;;;;;27.00;20.50;;;;;;;;;;5092695;28;20449;-59
2023/09/03 06:46:05;;;;;;;23.60;21.20;;;;;;;;;;5093434;28;20445;-58
2023/09/03 06:48:32;;;;;;;22.60;19.60;;;;;;;;;;5093014;28;20528;-60
2023/09/03 06:50:59;;;;;;;25.67;20.50;;;;;;;;;;5093095;28;20449;-60
2023/09/03 06:53:26;;;;;;;22.73;19.63;;;;;;;;;;5093208;28;20473;-65
2023/09/03 06:55:55;;;;;;;24.13;20.67;;;;;;;;;;5093105;28;20875;-60
2023/09/03 06:58:22;;;;;;;25.50;21.87;;;;;;;;;;5093057;28;20442;-60
2023/09/03 07:00:50;;;;;;;24.17;18.63;;;;;;;;;;5093140;28;20481;-60
2023/09/03 07:03:17;;;;;;;23.67;19.20;;;;;;;;;;5092873;28;20446;-60
2023/09/03 07:05:44;;;;;;;21.97;18.00;;;;;;;;;;5093253;28;20524;-60
2023/09/03 07:08:12;;;;;;;20.97;18.73;;;;;;;;;;5092771;28;20473;-60
2023/09/03 07:10:39;;;;;;;24.20;19.53;;;;;;;;;;5092659;28;20958;-60
2023/09/03 07:13:07;;;;;;;21.73;17.93;;;;;;;;;;5093117;28;20433;-60
2023/09/03 07:15:37;;;;;;;25.90;21.27;;;;;;;;;;5093013;28;20528;-60
2023/09/03 07:18:04;;;;;;;23.33;19.93;;;;;;;;;;5092641;28;20780;-60
2023/09/03 07:20:31;;;;;;;23.90;19.60;;;;;;;;;;5093248;28;20560;-62
2023/09/03 07:22:58;;;;;;;20.70;16.93;;;;;;;;;;5093233;28;20943;-62
2023/09/03 07:25:26;;;;;;;21.37;16.93;;;;;;;;;;5092764;28;20458;-71
2023/09/03 07:27:53;;;;;;;19.67;15.50;;;;;;;;;;5093119;28;20797;-63
2023/09/03 07:30:21;;;;;;;19.60;16.50;;;;;;;;;;5093001;28;20940;-63
2023/09/03 07:32:49;;;;;;;17.70;15.17;;;;;;;;;;5093881;28;20456;-62
2023/09/03 07:35:16;;;;;;;17.67;15.83;;;;;;;;;;5096635;28;20953;-62
2023/09/03 07:37:43;;;;;;;18.20;16.30;;;;;;;;;;5097036;28;20495;-62
2023/09/03 07:40:11;;;;;;;18.70;15.33;;;;;;;;;;5097024;28;20480;-62
2023/09/03 07:42:38;;;;;;;21.23;15.57;;;;;;;;;;5096879;28;20523;-62
2023/09/03 07:45:06;;;;;;;21.97;16.33;;;;;;;;;;5096583;28;20439;-60
2023/09/03 07:47:34;;;;;;;20.50;15.47;;;;;;;;;;5096404;28;20520;-62
2023/09/03 07:50:02;;;;;;;20.03;15.57;;;;;;;;;;5095928;28;20456;-61
2023/09/03 07:52:29;;;;;;;22.80;16.93;;;;;;;;;;5096126;28;20495;-61
2023/09/03 07:54:56;;;;;;;20.07;17.07;;;;;;;;;;5096247;28;20463;-61
2023/09/03 07:57:23;;;;;;;19.33;16.37;;;;;;;;;;5096179;28;20519;-61
2023/09/03 07:59:52;;;;;;;20.43;17.77;;;;;;;;;;5095679;28;20474;-61
2023/09/03 08:02:20;;;;;;;19.40;17.37;;;;;;;;;;5096131;28;20449;-61
2023/09/03 08:04:48;;;;;;;21.57;17.20;;;;;;;;;;5096453;28;20526;-61
2023/09/03 08:07:15;;;;;;;19.63;17.23;;;;;;;;;;5095786;28;21010;-61
2023/09/03 08:09:43;;;;;;;17.67;15.43;;;;;;;;;;5096673;28;20938;-62
2023/09/03 08:12:10;;;;;;;16.53;14.23;;;;;;;;;;5095934;28;20736;-61
2023/09/03 08:14:37;;;;;;;17.10;12.87;;;;;;;;;;5096014;28;20524;-62
2023/09/03 08:17:05;;;;;;;14.60;13.13;;;;;;;;;;5096050;28;20442;-62
2023/09/03 08:19:34;;;;;;;15.20;13.60;;;;;;;;;;5095525;28;20522;-61
2023/09/03 08:22:03;;;;;;;15.23;13.73;;;;;;;;;;5095974;28;20481;-62
2023/09/03 08:24:30;;;;;;;18.10;12.83;;;;;;;;;;5095445;28;20939;-61
2023/09/03 08:26:58;;;;;;;12.37;11.07;;;;;;;;;;5095658;28;20517;-61
2023/09/03 08:29:25;;;;;;;15.47;11.70;;;;;;;;;;5095585;28;20811;-61
2023/09/03 08:31:52;;;;;;;12.93;11.53;;;;;;;;;;5095391;28;20435;-61
2023/09/03 08:34:20;;;;;;;12.67;11.40;;;;;;;;;;5095874;28;20530;-61
2023/09/03 08:36:47;;;;;;;11.20;10.10;;;;;;;;;;5095178;28;20440;-61
2023/09/03 08:39:15;;;;;;;14.67;9.47;;;;;;;;;;5095595;28;20510;-61
2023/09/03 08:41:42;;;;;;;10.70;8.60;;;;;;;;;;5095532;28;20436;-62
2023/09/03 08:44:13;;;;;;;11.97;9.03;;;;;;;;;;5094790;28;20540;-61
2023/09/03 08:46:43;;;;;;;8.10;7.40;;;;;;;;;;5095631;28;20419;-62
2023/09/03 08:49:11;;;;;;;9.37;8.47;;;;;;;;;;5095290;28;20499;-61
2023/09/03 08:51:38;;;;;;;9.23;8.33;;;;;;;;;;5094962;28;20518;-61
2023/09/03 08:54:07;;;;;;;13.10;7.13;;;;;;;;;;5095048;28;20651;-61
2023/09/03 08:56:36;;;;;;;10.57;7.33;;;;;;;;;;5095416;28;20435;-61
2023/09/03 08:59:03;;;;;;;9.80;8.73;;;;;;;;;;5094679;28;20971;-61
2023/09/03 09:01:31;;;;;;;8.63;7.73;;;;;;;;;;5094810;28;20566;-61
2023/09/03 09:04:01;;;;;;;8.97;7.50;;;;;;;;;;5094592;28;20947;-61
2023/09/03 09:06:29;;;;;;;9.30;7.90;;;;;;;;;;5094891;28;20432;-61
2023/09/03 09:08:57;;;;;;;9.23;8.40;;;;;;;;;;5094753;28;20908;-61
2023/09/03 09:11:25;;;;;;;8.30;7.27;;;;;;;;;;5094119;28;20471;-61
2023/09/03 09:13:56;;;;;;;8.93;6.97;;;;;;;;;;5095153;28;20451;-61
2023/09/03 09:16:24;;;;;;;7.70;6.90;;;;;;;;;;5094999;28;20880;-61
2023/09/03 09:18:51;;;;;;;7.00;6.30;;;;;;;;;;5094704;28;20953;-62
2023/09/03 09:21:19;;;;;;;6.50;5.80;;;;;;;;;;5094659;28;20980;-61
2023/09/03 09:23:47;;;;;;;6.90;6.20;;;;;;;;;;5094111;28;20441;-61
2023/09/03 09:26:18;;;;;;;8.43;5.80;;;;;;;;;;5094309;28;20753;-61
2023/09/03 09:28:59;;;;;;;8.30;5.77;;;;;;;;;;5094402;28;20436;-61
2023/09/03 09:31:30;;;;;;;7.03;5.50;;;;;;;;;;5094421;28;20529;-62
2023/09/03 09:33:57;;;;;;;6.97;6.37;;;;;;;;;;5095116;28;20434;-62
2023/09/03 09:36:24;;;;;;;7.40;6.30;;;;;;;;;;5094168;28;20465;-61
2023/09/03 09:38:52;;;;;;;9.07;6.50;;;;;;;;;;5094036;28;20444;-62
2023/09/03 09:41:22;;;;;;;8.50;5.70;;;;;;;;;;5093645;28;20476;-62
2023/09/03 09:43:51;;;;;;;6.40;5.80;;;;;;;;;;5093817;28;20434;-61
2023/09/03 09:46:28;;;;;;;6.03;5.53;;;;;;;;;;5094298;28;20435;-61
2023/09/03 09:48:56;;;;;;;7.23;6.53;;;;;;;;;;5094338;28;20513;-61
2023/09/03 09:51:23;;;;;;;5.33;4.00;;;;;;;;;;5093828;28;20854;-61
2023/09/03 09:53:55;;;;;;;4.10;3.70;;;;;;;;;;5093537;28;21007;-61
2023/09/03 09:56:22;;;;;;;5.50;3.70;;;;;;;;;;5094228;28;20419;-61
2023/09/03 09:58:50;;;;;;;4.30;3.80;;;;;;;;;;5094090;28;20440;-61
2023/09/03 10:01:17;;;;;;;3.40;3.00;;;;;;;;;;5093066;28;20569;-61
2023/09/03 10:03:46;;;;;;;3.60;2.93;;;;;;;;;;5093325;28;20444;-61
2023/09/03 10:06:14;;;;;;;8.83;7.60;;;;;;;;;;5093661;28;20530;-61
2023/09/03 10:08:43;;;;;;;8.73;7.80;;;;;;;;;;5093635;28;20864;-61
2023/09/03 10:11:10;;;;;;;7.30;5.40;;;;;;;;;;5093237;28;20443;-61
2023/09/03 10:13:39;;;;;;;4.20;3.80;;;;;;;;;;5093226;28;20518;-61
2023/09/03 10:16:07;;;;;;;5.43;4.00;;;;;;;;;;5093346;28;20489;-61
2023/09/03 10:18:37;;;;;;;5.97;3.10;;;;;;;;;;5092945;28;20436;-61
2023/09/03 10:21:07;;;;;;;3.80;3.40;;;;;;;;;;5093307;28;20785;-61
2023/09/03 10:23:35;;;;;;;4.10;3.63;;;;;;;;;;5093399;28;20490;-61
2023/09/03 10:26:04;;;;;;;3.77;3.37;;;;;;;;;;5093001;28;20861;-61
2023/09/03 10:28:32;;;;;;;3.93;3.47;;;;;;;;;;5092581;28;20474;-62
2023/09/03 10:30:59;;;;;;;3.57;3.27;;;;;;;;;;5092638;28;20547;-62
2023/09/03 10:33:26;;;;;;;7.57;4.30;;;;;;;;;;5092941;28;20436;-62
2023/09/03 10:36:12;;;;;;;3.50;3.20;;;;;;;;;;5093566;28;20862;-62
2023/09/03 10:38:41;;;;;;;3.43;3.13;;;;;;;;;;5093481;28;20438;-61
2023/09/03 10:41:18;;;;;;;3.77;3.43;;;;;;;;;;5093086;28;20830;-61
2023/09/03 10:43:46;;;;;;;4.23;3.70;;;;;;;;;;5092772;28;21010;-61
2023/09/03 10:46:13;;;;;;;3.07;2.53;;;;;;;;;;5092733;28;20933;-62
2023/09/03 10:48:41;;;;;;;3.70;2.63;;;;;;;;;;5093281;28;20439;-61
2023/09/03 10:51:08;;;;;;;4.10;3.47;;;;;;;;;;5093026;28;20431;-61
2023/09/03 10:53:39;;;;;;;4.23;2.87;;;;;;;;;;5092778;28;20475;-61
2023/09/03 10:56:08;;;;;;;2.80;2.60;;;;;;;;;;5092760;28;20954;-61
2023/09/03 10:58:36;;;;;;;4.67;2.97;;;;;;;;;;5092678;28;20446;-61
2023/09/03 11:01:22;;;;;;;4.57;2.97;;;;;;;;;;5092805;28;20535;-62
2023/09/03 11:03:50;;;;;;;5.20;3.07;;;;;;;;;;5092688;28;20922;-61
2023/09/03 11:06:18;;;;;;;3.27;2.97;;;;;;;;;;5092198;28;20929;-62
2023/09/03 11:08:45;;;;;;;4.43;2.60;;;;;;;;;;5092898;28;20451;-61
2023/09/03 11:11:19;;;;;;;2.40;2.20;;;;;;;;;;5092910;28;20531;-61
2023/09/03 11:13:50;;;;;;;3.00;2.80;;;;;;;;;;5092572;28;20889;-61
2023/09/03 11:16:17;;;;;;;4.33;3.20;;;;;;;;;;5092697;28;20485;-61
2023/09/03 11:18:49;;;;;;;4.37;2.70;;;;;;;;;;5092362;28;20529;-62
2023/09/03 11:21:24;;;;;;;3.57;2.63;;;;;;;;;;5093116;28;20866;-61
2023/09/03 11:24:04;;;;;;;5.30;3.23;;;;;;;;;;5092568;28;20514;-61
2023/09/03 11:26:33;;;;;;;2.90;2.70;;;;;;;;;;5093637;28;20527;-62
2023/09/03 11:29:01;;;;;;;6.30;5.50;;;;;;;;;;5092601;28;20933;-62
2023/09/03 11:31:28;;;;;;;2.90;2.70;;;;;;;;;;5092740;28;20522;-61
2023/09/03 11:33:56;;;;;;;3.40;3.20;;;;;;;;;;5093260;28;20446;-62
2023/09/03 11:36:24;;;;;;;2.80;2.60;;;;;;;;;;5093424;28;20439;-62
2023/09/03 11:38:51;;;;;;;5.20;3.57;;;;;;;;;;5092993;28;20770;-60
2023/09/03 11:41:19;;;;;;;4.77;3.40;;;;;;;;;;5092404;28;20472;-60
2023/09/03 11:43:47;;;;;;;5.00;3.97;;;;;;;;;;5092718;28;20439;-60
2023/09/03 11:46:15;;;;;;;8.87;3.87;;;;;;;;;;5092355;28;20535;-61
2023/09/03 11:48:43;;;;;;;4.10;2.97;;;;;;;;;;5092818;28;20446;-61
2023/09/03 11:51:10;;;;;;;2.70;2.23;;;;;;;;;;5092577;28;20435;-61
2023/09/03 11:53:41;;;;;;;3.30;3.00;;;;;;;;;;5093248;28;20562;-61
2023/09/03 11:56:10;;;;;;;4.63;2.40;;;;;;;;;;5092543;28;20509;-61
2023/09/03 11:58:37;;;;;;;3.40;3.10;;;;;;;;;;5092605;28;20454;-61
2023/09/03 12:01:06;;;;;;;3.40;3.10;;;;;;;;;;5092155;28;21027;-61
2023/09/03 12:03:33;;;;;;;4.50;4.10;;;;;;;;;;5092153;28;20531;-61
2023/09/03 12:06:01;;;;;;;4.67;4.20;;;;;;;;;;5092243;28;20435;-65
2023/09/03 12:08:32;;;;;;;3.70;3.40;;;;;;;;;;5092484;28;20436;-62
2023/09/03 12:10:59;;;;;;;5.13;4.60;;;;;;;;;;5092363;28;20922;-62
2023/09/03 12:13:30;;;;;;;2.80;2.50;;;;;;;;;;5092086;28;20469;-61
2023/09/03 12:16:07;;;;;;;2.70;2.40;;;;;;;;;;5092468;28;20438;-62
2023/09/03 12:18:34;;;;;;;2.77;2.40;;;;;;;;;;5092376;28;20432;-62
2023/09/03 12:21:02;;;;;;;2.90;2.70;;;;;;;;;;5096183;28;20840;-62
2023/09/03 12:23:29;;;;;;;2.80;2.60;;;;;;;;;;5096274;28;20457;-62
2023/09/03 12:25:56;;;;;;;3.40;3.10;;;;;;;;;;5096312;28;20766;-62
2023/09/03 12:28:36;;;;;;;2.90;2.50;;;;;;;;;;5095731;28;20531;-62
2023/09/03 12:31:04;;;;;;;2.60;2.40;;;;;;;;;;5095958;28;20475;-62
2023/09/03 12:33:49;;;;;;;5.07;4.57;;;;;;;;;;5095704;28;20523;-62
2023/09/03 12:36:17;;;;;;;2.40;2.20;;;;;;;;;;5096236;28;20841;-62
2023/09/03 12:38:53;;;;;;;2.70;2.50;;;;;;;;;;5095390;28;20533;-62
2023/09/03 12:41:20;;;;;;;3.57;2.50;;;;;;;;;;5095460;28;20492;-62
2023/09/03 12:43:47;;;;;;;2.50;2.30;;;;;;;;;;5095770;28;20529;-62
2023/09/03 12:46:15;;;;;;;2.57;2.30;;;;;;;;;;5096281;28;20452;-62
2023/09/03 12:48:43;;;;;;;3.53;2.47;;;;;;;;;;5095390;28;20440;-62
2023/09/03 12:51:11;;;;;;;3.63;2.93;;;;;;;;;;5095755;28;20448;-62
2023/09/03 12:53:39;;;;;;;3.17;2.47;;;;;;;;;;5095368;28;20507;-62
2023/09/03 12:56:06;;;;;;;3.33;2.10;;;;;;;;;;5095516;28;20752;-62
2023/09/03 12:58:33;;;;;;;2.33;1.97;;;;;;;;;;5095539;28;20448;-62
2023/09/03 13:01:01;;;;;;;6.13;2.10;;;;;;;;;;5095066;28;20533;-62
2023/09/03 13:03:28;;;;;;;1.83;1.73;;;;;;;;;;5095406;28;20442;-62
2023/09/03 13:05:56;;;;;;;4.40;2.73;;;;;;;;;;5095087;28;20533;-62
2023/09/03 13:08:32;;;;;;;5.00;2.50;;;;;;;;;;5094733;28;20433;-62
2023/09/03 13:11:00;;;;;;;3.87;2.77;;;;;;;;;;5095106;28;20423;-61
2023/09/03 13:13:28;;;;;;;3.93;2.93;;;;;;;;;;5095142;28;20452;-61
2023/09/03 13:15:55;;;;;;;2.80;1.90;;;;;;;;;;5094496;28;20530;-61
2023/09/03 13:18:22;;;;;;;2.97;2.40;;;;;;;;;;5094962;28;20746;-61
2023/09/03 13:20:49;;;;;;;2.90;2.57;;;;;;;;;;5094530;28;20444;-61
2023/09/03 13:23:17;;;;;;;3.43;3.13;;;;;;;;;;5094401;28;20441;-61
2023/09/03 13:25:45;;;;;;;2.63;1.93;;;;;;;;;;5094735;28;20470;-61
2023/09/03 13:28:13;;;;;;;2.90;2.60;;;;;;;;;;5094369;28;20461;-61
2023/09/03 13:30:40;;;;;;;1.93;1.83;;;;;;;;;;5094013;28;20441;-61
2023/09/03 13:33:08;;;;;;;4.33;2.20;;;;;;;;;;5094782;28;20444;-62
2023/09/03 13:35:36;;;;;;;4.17;2.23;;;;;;;;;;5094651;28;20569;-61
2023/09/03 13:38:04;;;;;;;2.60;2.20;;;;;;;;;;5094467;28;20430;-61
2023/09/03 13:40:31;;;;;;;4.07;2.67;;;;;;;;;;5094046;28;20827;-61
2023/09/03 13:43:00;;;;;;;3.27;2.10;;;;;;;;;;5094327;28;20475;-62
2023/09/03 13:45:27;;;;;;;3.03;2.30;;;;;;;;;;5093964;28;20441;-61
2023/09/03 13:47:54;;;;;;;2.00;1.80;;;;;;;;;;5094266;28;20443;-62
2023/09/03 13:50:21;;;;;;;2.83;2.20;;;;;;;;;;5094627;28;20860;-62
2023/09/03 13:52:49;;;;;;;4.20;2.50;;;;;;;;;;5094179;28;20454;-61
2023/09/03 13:55:16;;;;;;;2.40;2.10;;;;;;;;;;5093631;28;20522;-62
2023/09/03 13:57:43;;;;;;;3.73;2.13;;;;;;;;;;5093656;28;20489;-61
2023/09/03 14:00:13;;;;;;;5.50;4.87;;;;;;;;;;5093604;28;20454;-61
2023/09/03 14:02:40;;;;;;;6.20;4.60;;;;;;;;;;5093924;28;20480;-61
2023/09/03 14:05:07;;;;;;;3.00;2.57;;;;;;;;;;5093974;28;20444;-62
2023/09/03 14:07:40;;;;;;;3.50;2.40;;;;;;;;;;5093964;28;20534;-61
2023/09/03 14:10:08;;;;;;;3.60;2.10;;;;;;;;;;5094149;28;20809;-61
2023/09/03 14:12:35;;;;;;;3.20;2.50;;;;;;;;;;5093914;28;20519;-61
2023/09/03 14:15:03;;;;;;;2.07;1.83;;;;;;;;;;5093829;28;20446;-61
2023/09/03 14:17:31;;;;;;;3.70;2.67;;;;;;;;;;5093760;28;20518;-61
2023/09/03 14:19:58;;;;;;;2.07;1.87;;;;;;;;;;5093490;28;20531;-61
2023/09/03 14:22:26;;;;;;;2.60;2.30;;;;;;;;;;5093656;28;20502;-61
2023/09/03 14:24:53;;;;;;;3.40;2.47;;;;;;;;;;5093230;28;20913;-61
2023/09/03 14:27:20;;;;;;;2.93;2.30;;;;;;;;;;5093292;28;20536;-61
2023/09/03 14:29:47;;;;;;;3.10;2.90;;;;;;;;;;5093377;28;20441;-61
2023/09/03 14:32:14;;;;;;;4.30;2.67;;;;;;;;;;5093513;28;20466;-62
2023/09/03 14:34:43;;;;;;;2.80;2.50;;;;;;;;;;5093497;28;20464;-61